sensor_id;sensor_type;location;lat;lon;timestamp;temperature;humidity
16229;DHT22;8222;51.462;12.630;2022-09-02T00:01:16;14.10;99.90
16229;DHT22;8222;51.462;12.630;2022-09-02T00:03:42;14.10;99.90
16229;DHT22;8222;51.462;12.630;2022-09-02T00:06:08;14.00;99.90
16229;DHT22;8222;51.462;12.630;2022-09-02T00:08:35;14.00;99.90
16229;DHT22;8222;51.462;12.630;2022-09-02T00:11:03;14.00;99.90
16229;DHT22;8222;51.462;12.630;2022-09-02T00:13:33;14.00;99.90
16229;DHT22;8222;51.462;12.630;2022-09-02T00:16:00;14.00;99.90
16229;DHT22;8222;51.462;12.630;2022-09-02T00:18:26;13.90;99.90
16229;DHT22;8222;51.462;12.630;2022-09-02T00:20:52;14.00;99.90
16229;DHT22;8222;51.462;12.630;2022-09-02T00:23:18;13.90;99.90
16229;DHT22;8222;51.462;12.630;2022-09-02T00:25:44;14.00;99.90
16229;DHT22;8222;51.462;12.630;2022-09-02T00:28:11;13.90;99.90
16229;DHT22;8222;51.462;12.630;2022-09-02T00:30:38;13.90;99.90
16229;DHT22;8222;51.462;12.630;2022-09-02T00:33:05;13.90;99.90
16229;DHT22;8222;51.462;12.630;2022-09-02T00:35:31;13.80;99.90
16229;DHT22;8222;51.462;12.630;2022-09-02T00:37:59;13.90;99.90
16229;DHT22;8222;51.462;12.630;2022-09-02T00:40:26;13.90;99.90
16229;DHT22;8222;51.462;12.630;2022-09-02T00:42:52;13.90;99.90
16229;DHT22;8222;51.462;12.630;2022-09-02T00:45:19;13.80;99.90
16229;DHT22;8222;51.462;12.630;2022-09-02T00:47:45;13.80;99.90
16229;DHT22;8222;51.462;12.630;2022-09-02T00:50:14;13.80;99.90
16229;DHT22;8222;51.462;12.630;2022-09-02T00:52:57;13.80;99.90
16229;DHT22;8222;51.462;12.630;2022-09-02T00:55:25;13.70;99.90
16229;DHT22;8222;51.462;12.630;2022-09-02T00:57:56;13.70;99.90
16229;DHT22;8222;51.462;12.630;2022-09-02T01:00:27;13.70;99.90
16229;DHT22;8222;51.462;12.630;2022-09-02T01:03:02;13.70;99.90
16229;DHT22;8222;51.462;12.630;2022-09-02T01:05:30;13.70;99.90
16229;DHT22;8222;51.462;12.630;2022-09-02T01:07:58;13.60;99.90
16229;DHT22;8222;51.462;12.630;2022-09-02T01:10:32;13.60;99.90
16229;DHT22;8222;51.462;12.630;2022-09-02T01:13:06;13.60;99.90
16229;DHT22;8222;51.462;12.630;2022-09-02T01:15:38;13.50;99.90
16229;DHT22;8222;51.462;12.630;2022-09-02T01:18:05;13.60;99.90
16229;DHT22;8222;51.462;12.630;2022-09-02T01:20:32;13.50;99.90
16229;DHT22;8222;51.462;12.630;2022-09-02T01:22:59;13.60;99.90
16229;DHT22;8222;51.462;12.630;2022-09-02T01:25:29;13.50;99.90
16229;DHT22;8222;51.462;12.630;2022-09-02T01:28:01;13.50;99.90
16229;DHT22;8222;51.462;12.630;2022-09-02T01:30:28;13.50;99.90
16229;DHT22;8222;51.462;12.630;2022-09-02T01:32:53;13.40;99.90
16229;DHT22;8222;51.462;12.630;2022-09-02T01:35:20;13.40;99.90
16229;DHT22;8222;51.462;12.630;2022-09-02T01:37:46;13.40;99.90
16229;DHT22;8222;51.462;12.630;2022-09-02T01:40:15;13.30;99.90
16229;DHT22;8222;51.462;12.630;2022-09-02T01:42:44;13.30;99.90
16229;DHT22;8222;51.462;12.630;2022-09-02T01:45:10;13.30;99.90
16229;DHT22;8222;51.462;12.630;2022-09-02T01:47:36;13.30;99.90
16229;DHT22;8222;51.462;12.630;2022-09-02T01:50:04;13.10;99.90
16229;DHT22;8222;51.462;12.630;2022-09-02T01:52:31;13.20;99.90
16229;DHT22;8222;51.462;12.630;2022-09-02T01:54:59;13.20;99.90
16229;DHT22;8222;51.462;12.630;2022-09-02T01:57:24;13.20;99.90
16229;DHT22;8222;51.462;12.630;2022-09-02T01:59:51;13.20;99.90
16229;DHT22;8222;51.462;12.630;2022-09-02T02:02:18;13.20;99.90
16229;DHT22;8222;51.462;12.630;2022-09-02T02:04:45;13.20;99.90
16229;DHT22;8222;51.462;12.630;2022-09-02T02:07:16;13.00;99.90
16229;DHT22;8222;51.462;12.630;2022-09-02T02:09:43;13.10;99.90
16229;DHT22;8222;51.462;12.630;2022-09-02T02:12:09;13.40;99.90
16229;DHT22;8222;51.462;12.630;2022-09-02T02:14:37;13.00;99.90
16229;DHT22;8222;51.462;12.630;2022-09-02T02:17:03;13.00;99.90
16229;DHT22;8222;51.462;12.630;2022-09-02T02:19:28;13.10;99.90
16229;DHT22;8222;51.462;12.630;2022-09-02T02:21:54;13.10;99.90
16229;DHT22;8222;51.462;12.630;2022-09-02T02:24:20;13.10;99.90
16229;DHT22;8222;51.462;12.630;2022-09-02T02:26:46;13.10;99.90
16229;DHT22;8222;51.462;12.630;2022-09-02T02:29:13;13.00;99.90
16229;DHT22;8222;51.462;12.630;2022-09-02T02:31:39;12.90;99.90
16229;DHT22;8222;51.462;12.630;2022-09-02T02:34:05;12.90;99.90
16229;DHT22;8222;51.462;12.630;2022-09-02T02:36:31;12.90;99.90
16229;DHT22;8222;51.462;12.630;2022-09-02T02:38:57;12.90;99.90
16229;DHT22;8222;51.462;12.630;2022-09-02T02:41:26;12.90;99.90
16229;DHT22;8222;51.462;12.630;2022-09-02T02:43:52;12.90;99.90
16229;DHT22;8222;51.462;12.630;2022-09-02T02:46:18;12.80;99.90
16229;DHT22;8222;51.462;12.630;2022-09-02T02:48:44;12.80;99.90
16229;DHT22;8222;51.462;12.630;2022-09-02T02:51:10;12.70;99.90
16229;DHT22;8222;51.462;12.630;2022-09-02T02:53:35;12.70;99.90
16229;DHT22;8222;51.462;12.630;2022-09-02T02:56:02;12.70;99.90
16229;DHT22;8222;51.462;12.630;2022-09-02T02:58:28;12.60;99.90
16229;DHT22;8222;51.462;12.630;2022-09-02T03:00:55;12.70;99.90
16229;DHT22;8222;51.462;12.630;2022-09-02T03:03:22;12.60;99.90
16229;DHT22;8222;51.462;12.630;2022-09-02T03:05:48;12.60;99.90
16229;DHT22;8222;51.462;12.630;2022-09-02T03:08:15;12.60;99.90
16229;DHT22;8222;51.462;12.630;2022-09-02T03:10:49;12.60;99.90
16229;DHT22;8222;51.462;12.630;2022-09-02T03:13:20;12.50;99.90
16229;DHT22;8222;51.462;12.630;2022-09-02T03:15:48;12.60;99.90
16229;DHT22;8222;51.462;12.630;2022-09-02T03:18:14;12.60;99.90
16229;DHT22;8222;51.462;12.630;2022-09-02T03:20:41;12.50;99.90
16229;DHT22;8222;51.462;12.630;2022-09-02T03:23:07;12.50;99.90
16229;DHT22;8222;51.462;12.630;2022-09-02T03:25:35;12.50;99.90
16229;DHT22;8222;51.462;12.630;2022-09-02T03:28:01;12.50;99.90
16229;DHT22;8222;51.462;12.630;2022-09-02T03:30:29;12.50;99.90
16229;DHT22;8222;51.462;12.630;2022-09-02T03:32:56;12.50;99.90
16229;DHT22;8222;51.462;12.630;2022-09-02T03:35:22;12.50;99.90
16229;DHT22;8222;51.462;12.630;2022-09-02T03:37:50;12.50;99.90
16229;DHT22;8222;51.462;12.630;2022-09-02T03:40:19;12.90;99.90
16229;DHT22;8222;51.462;12.630;2022-09-02T03:42:47;12.40;99.90
16229;DHT22;8222;51.462;12.630;2022-09-02T03:45:13;12.60;99.90
16229;DHT22;8222;51.462;12.630;2022-09-02T03:47:40;12.40;99.90
16229;DHT22;8222;51.462;12.630;2022-09-02T03:50:10;12.30;99.90
16229;DHT22;8222;51.462;12.630;2022-09-02T03:52:36;12.40;99.90
16229;DHT22;8222;51.462;12.630;2022-09-02T03:55:03;12.30;99.90
16229;DHT22;8222;51.462;12.630;2022-09-02T03:57:30;12.40;99.90
16229;DHT22;8222;51.462;12.630;2022-09-02T03:59:55;12.60;99.90
16229;DHT22;8222;51.462;12.630;2022-09-02T04:02:21;12.40;99.90
16229;DHT22;8222;51.462;12.630;2022-09-02T04:04:49;12.60;99.90
16229;DHT22;8222;51.462;12.630;2022-09-02T04:07:15;12.60;99.90
16229;DHT22;8222;51.462;12.630;2022-09-02T04:09:40;12.60;99.90
16229;DHT22;8222;51.462;12.630;2022-09-02T04:12:06;12.70;99.90
16229;DHT22;8222;51.462;12.630;2022-09-02T04:14:32;12.80;99.90
16229;DHT22;8222;51.462;12.630;2022-09-02T04:16:58;13.00;99.90
16229;DHT22;8222;51.462;12.630;2022-09-02T04:19:23;13.10;99.90
16229;DHT22;8222;51.462;12.630;2022-09-02T04:21:49;13.20;99.90
16229;DHT22;8222;51.462;12.630;2022-09-02T04:24:15;13.20;99.90
16229;DHT22;8222;51.462;12.630;2022-09-02T04:26:40;13.30;99.90
16229;DHT22;8222;51.462;12.630;2022-09-02T04:29:06;13.40;99.90
16229;DHT22;8222;51.462;12.630;2022-09-02T04:31:34;13.40;99.90
16229;DHT22;8222;51.462;12.630;2022-09-02T04:34:00;13.50;99.90
16229;DHT22;8222;51.462;12.630;2022-09-02T04:36:27;13.40;99.90
16229;DHT22;8222;51.462;12.630;2022-09-02T04:38:53;13.50;99.90
16229;DHT22;8222;51.462;12.630;2022-09-02T04:41:24;13.50;99.90
16229;DHT22;8222;51.462;12.630;2022-09-02T04:43:51;13.60;99.90
16229;DHT22;8222;51.462;12.630;2022-09-02T04:46:17;13.50;99.90
16229;DHT22;8222;51.462;12.630;2022-09-02T04:48:44;13.70;99.90
16229;DHT22;8222;51.462;12.630;2022-09-02T04:51:12;13.80;99.90
16229;DHT22;8222;51.462;12.630;2022-09-02T04:53:39;13.90;99.90
16229;DHT22;8222;51.462;12.630;2022-09-02T04:56:06;13.90;99.90
16229;DHT22;8222;51.462;12.630;2022-09-02T04:58:35;13.80;99.90
16229;DHT22;8222;51.462;12.630;2022-09-02T05:01:06;14.00;99.90
16229;DHT22;8222;51.462;12.630;2022-09-02T05:03:32;14.00;99.90
16229;DHT22;8222;51.462;12.630;2022-09-02T05:06:07;14.10;99.90
16229;DHT22;8222;51.462;12.630;2022-09-02T05:08:33;14.00;99.90
16229;DHT22;8222;51.462;12.630;2022-09-02T05:11:06;14.10;99.90
16229;DHT22;8222;51.462;12.630;2022-09-02T05:13:32;14.10;99.90
16229;DHT22;8222;51.462;12.630;2022-09-02T05:15:57;14.10;99.90
16229;DHT22;8222;51.462;12.630;2022-09-02T05:18:23;14.00;99.90
16229;DHT22;8222;51.462;12.630;2022-09-02T05:20:49;13.90;99.90
16229;DHT22;8222;51.462;12.630;2022-09-02T05:23:14;13.90;99.90
16229;DHT22;8222;51.462;12.630;2022-09-02T05:25:42;13.90;99.90
16229;DHT22;8222;51.462;12.630;2022-09-02T05:28:08;13.80;99.90
16229;DHT22;8222;51.462;12.630;2022-09-02T05:30:39;13.80;99.90
16229;DHT22;8222;51.462;12.630;2022-09-02T05:33:06;14.30;99.90
16229;DHT22;8222;51.462;12.630;2022-09-02T05:35:32;13.80;99.90
16229;DHT22;8222;51.462;12.630;2022-09-02T05:38:00;13.90;99.90
16229;DHT22;8222;51.462;12.630;2022-09-02T05:40:25;14.00;99.90
16229;DHT22;8222;51.462;12.630;2022-09-02T05:42:51;14.10;99.90
16229;DHT22;8222;51.462;12.630;2022-09-02T05:45:17;14.00;99.90
16229;DHT22;8222;51.462;12.630;2022-09-02T05:47:43;14.00;99.90
16229;DHT22;8222;51.462;12.630;2022-09-02T05:50:11;14.00;99.90
16229;DHT22;8222;51.462;12.630;2022-09-02T05:52:39;14.00;99.90
16229;DHT22;8222;51.462;12.630;2022-09-02T05:55:05;14.10;99.90
16229;DHT22;8222;51.462;12.630;2022-09-02T05:57:31;14.10;99.90
16229;DHT22;8222;51.462;12.630;2022-09-02T05:59:56;14.30;99.90
16229;DHT22;8222;51.462;12.630;2022-09-02T06:02:23;14.40;99.90
16229;DHT22;8222;51.462;12.630;2022-09-02T06:04:53;14.60;99.90
16229;DHT22;8222;51.462;12.630;2022-09-02T06:07:22;14.60;99.90
16229;DHT22;8222;51.462;12.630;2022-09-02T06:09:48;14.70;99.90
16229;DHT22;8222;51.462;12.630;2022-09-02T06:12:15;14.70;99.90
16229;DHT22;8222;51.462;12.630;2022-09-02T06:14:45;14.90;99.90
16229;DHT22;8222;51.462;12.630;2022-09-02T06:17:12;14.90;99.90
16229;DHT22;8222;51.462;12.630;2022-09-02T06:19:38;15.00;99.90
16229;DHT22;8222;51.462;12.630;2022-09-02T06:22:06;15.10;99.90
16229;DHT22;8222;51.462;12.630;2022-09-02T06:24:32;15.10;99.90
16229;DHT22;8222;51.462;12.630;2022-09-02T06:26:57;15.30;99.90
16229;DHT22;8222;51.462;12.630;2022-09-02T06:29:25;15.40;99.90
16229;DHT22;8222;51.462;12.630;2022-09-02T06:31:53;15.60;99.90
16229;DHT22;8222;51.462;12.630;2022-09-02T06:34:21;15.70;99.90
16229;DHT22;8222;51.462;12.630;2022-09-02T06:36:48;15.90;99.90
16229;DHT22;8222;51.462;12.630;2022-09-02T06:39:19;15.90;99.90
16229;DHT22;8222;51.462;12.630;2022-09-02T06:41:46;16.00;99.90
16229;DHT22;8222;51.462;12.630;2022-09-02T06:44:14;15.90;99.90
16229;DHT22;8222;51.462;12.630;2022-09-02T06:46:43;16.00;99.90
16229;DHT22;8222;51.462;12.630;2022-09-02T06:49:10;16.20;99.90
16229;DHT22;8222;51.462;12.630;2022-09-02T06:51:38;16.40;99.90
16229;DHT22;8222;51.462;12.630;2022-09-02T06:54:07;16.60;99.90
16229;DHT22;8222;51.462;12.630;2022-09-02T06:56:33;16.60;99.90
16229;DHT22;8222;51.462;12.630;2022-09-02T06:58:59;16.60;99.90
16229;DHT22;8222;51.462;12.630;2022-09-02T07:01:28;16.80;99.90
16229;DHT22;8222;51.462;12.630;2022-09-02T07:03:56;17.00;99.90
16229;DHT22;8222;51.462;12.630;2022-09-02T07:06:44;17.00;99.90
16229;DHT22;8222;51.462;12.630;2022-09-02T07:09:11;17.30;99.90
16229;DHT22;8222;51.462;12.630;2022-09-02T07:11:39;17.40;99.90
16229;DHT22;8222;51.462;12.630;2022-09-02T07:14:05;17.50;99.90
16229;DHT22;8222;51.462;12.630;2022-09-02T07:16:35;17.60;99.90
16229;DHT22;8222;51.462;12.630;2022-09-02T07:19:03;17.70;99.90
16229;DHT22;8222;51.462;12.630;2022-09-02T07:21:30;17.70;99.90
16229;DHT22;8222;51.462;12.630;2022-09-02T07:23:59;17.90;99.90
16229;DHT22;8222;51.462;12.630;2022-09-02T07:26:26;18.00;99.90
16229;DHT22;8222;51.462;12.630;2022-09-02T07:28:52;18.10;99.90
16229;DHT22;8222;51.462;12.630;2022-09-02T07:31:18;18.30;99.90
16229;DHT22;8222;51.462;12.630;2022-09-02T07:33:44;18.40;99.90
16229;DHT22;8222;51.462;12.630;2022-09-02T07:36:12;18.50;99.90
16229;DHT22;8222;51.462;12.630;2022-09-02T07:38:38;18.60;99.90
16229;DHT22;8222;51.462;12.630;2022-09-02T07:41:06;18.70;99.90
16229;DHT22;8222;51.462;12.630;2022-09-02T07:43:33;18.90;99.90
16229;DHT22;8222;51.462;12.630;2022-09-02T07:46:00;19.00;99.90
16229;DHT22;8222;51.462;12.630;2022-09-02T07:48:27;19.10;99.90
16229;DHT22;8222;51.462;12.630;2022-09-02T07:50:53;19.10;99.90
16229;DHT22;8222;51.462;12.630;2022-09-02T07:53:20;19.20;99.90
16229;DHT22;8222;51.462;12.630;2022-09-02T07:55:46;19.20;99.90
16229;DHT22;8222;51.462;12.630;2022-09-02T07:58:14;19.30;99.90
16229;DHT22;8222;51.462;12.630;2022-09-02T08:00:41;19.40;99.90
16229;DHT22;8222;51.462;12.630;2022-09-02T08:03:08;19.40;99.90
16229;DHT22;8222;51.462;12.630;2022-09-02T08:05:35;19.50;99.90
16229;DHT22;8222;51.462;12.630;2022-09-02T08:08:01;19.80;99.90
16229;DHT22;8222;51.462;12.630;2022-09-02T08:10:29;19.90;99.90
16229;DHT22;8222;51.462;12.630;2022-09-02T08:12:56;20.00;99.90
16229;DHT22;8222;51.462;12.630;2022-09-02T08:15:25;20.20;99.90
16229;DHT22;8222;51.462;12.630;2022-09-02T08:17:54;20.40;99.90
16229;DHT22;8222;51.462;12.630;2022-09-02T08:20:20;20.50;99.90
16229;DHT22;8222;51.462;12.630;2022-09-02T08:22:46;20.50;99.90
16229;DHT22;8222;51.462;12.630;2022-09-02T08:25:12;20.70;99.90
16229;DHT22;8222;51.462;12.630;2022-09-02T08:27:40;20.80;99.90
16229;DHT22;8222;51.462;12.630;2022-09-02T08:30:07;21.00;99.90
16229;DHT22;8222;51.462;12.630;2022-09-02T08:32:37;21.10;99.90
16229;DHT22;8222;51.462;12.630;2022-09-02T08:35:03;21.30;99.90
16229;DHT22;8222;51.462;12.630;2022-09-02T08:37:30;21.40;99.90
16229;DHT22;8222;51.462;12.630;2022-09-02T08:39:56;21.60;99.90
16229;DHT22;8222;51.462;12.630;2022-09-02T08:45:12;21.80;99.90
16229;DHT22;8222;51.462;12.630;2022-09-02T08:47:41;21.70;99.90
16229;DHT22;8222;51.462;12.630;2022-09-02T08:50:16;21.60;99.90
16229;DHT22;8222;51.462;12.630;2022-09-02T08:53:00;21.70;99.90
16229;DHT22;8222;51.462;12.630;2022-09-02T08:55:52;21.80;99.90
16229;DHT22;8222;51.462;12.630;2022-09-02T08:58:27;22.00;99.90
16229;DHT22;8222;51.462;12.630;2022-09-02T09:15:21;22.80;99.90
16229;DHT22;8222;51.462;12.630;2022-09-02T09:17:55;22.90;99.30
16229;DHT22;8222;51.462;12.630;2022-09-02T09:20:31;23.10;99.90
16229;DHT22;8222;51.462;12.630;2022-09-02T09:23:00;23.20;99.50
16229;DHT22;8222;51.462;12.630;2022-09-02T09:25:28;23.30;98.60
16229;DHT22;8222;51.462;12.630;2022-09-02T09:28:00;23.50;94.10
16229;DHT22;8222;51.462;12.630;2022-09-02T09:30:27;23.40;93.90
16229;DHT22;8222;51.462;12.630;2022-09-02T09:32:55;23.30;95.40
16229;DHT22;8222;51.462;12.630;2022-09-02T09:35:22;23.40;95.70
16229;DHT22;8222;51.462;12.630;2022-09-02T09:37:53;23.50;92.20
16229;DHT22;8222;51.462;12.630;2022-09-02T09:40:25;23.50;93.20
16229;DHT22;8222;51.462;12.630;2022-09-02T09:48:21;23.80;91.80
16229;DHT22;8222;51.462;12.630;2022-09-02T09:53:22;24.00;90.00
16229;DHT22;8222;51.462;12.630;2022-09-02T09:58:46;24.20;85.40
16229;DHT22;8222;51.462;12.630;2022-09-02T10:01:28;24.30;81.70
16229;DHT22;8222;51.462;12.630;2022-09-02T10:09:06;24.40;86.10
16229;DHT22;8222;51.462;12.630;2022-09-02T10:14:47;24.60;75.30
16229;DHT22;8222;51.462;12.630;2022-09-02T10:20:21;24.60;76.90
16229;DHT22;8222;51.462;12.630;2022-09-02T10:25:51;24.70;75.70
16229;DHT22;8222;51.462;12.630;2022-09-02T10:28:54;24.90;78.20
16229;DHT22;8222;51.462;12.630;2022-09-02T10:37:24;25.60;72.20
16229;DHT22;8222;51.462;12.630;2022-09-02T10:40:11;25.60;72.20
16229;DHT22;8222;51.462;12.630;2022-09-02T10:42:59;25.60;72.10
16229;DHT22;8222;51.462;12.630;2022-09-02T10:45:46;25.50;72.50
16229;DHT22;8222;51.462;12.630;2022-09-02T10:51:05;25.10;72.90
16229;DHT22;8222;51.462;12.630;2022-09-02T10:56:16;24.70;70.90
16229;DHT22;8222;51.462;12.630;2022-09-02T11:01:45;25.00;71.90
16229;DHT22;8222;51.462;12.630;2022-09-02T11:06:41;25.20;67.60
16229;DHT22;8222;51.462;12.630;2022-09-02T11:11:59;25.50;70.20
16229;DHT22;8222;51.462;12.630;2022-09-02T11:14:33;25.40;65.40
16229;DHT22;8222;51.462;12.630;2022-09-02T11:17:08;25.30;69.10
16229;DHT22;8222;51.462;12.630;2022-09-02T11:19:47;25.40;64.60
16229;DHT22;8222;51.462;12.630;2022-09-02T11:22:40;25.60;65.60
16229;DHT22;8222;51.462;12.630;2022-09-02T11:25:20;25.60;66.20
16229;DHT22;8222;51.462;12.630;2022-09-02T11:36:25;25.50;66.20
16229;DHT22;8222;51.462;12.630;2022-09-02T11:52:28;24.90;65.30
16229;DHT22;8222;51.462;12.630;2022-09-02T11:55:08;24.90;66.10
16229;DHT22;8222;51.462;12.630;2022-09-02T11:57:38;24.80;68.10
16229;DHT22;8222;51.462;12.630;2022-09-02T12:03:11;25.10;66.10
16229;DHT22;8222;51.462;12.630;2022-09-02T12:08:12;26.00;64.70
16229;DHT22;8222;51.462;12.630;2022-09-02T12:24:56;26.20;62.40
16229;DHT22;8222;51.462;12.630;2022-09-02T12:27:35;26.10;64.30
16229;DHT22;8222;51.462;12.630;2022-09-02T12:30:04;25.80;62.80
16229;DHT22;8222;51.462;12.630;2022-09-02T12:35:35;25.50;64.20
16229;DHT22;8222;51.462;12.630;2022-09-02T12:40:57;25.90;65.60
16229;DHT22;8222;51.462;12.630;2022-09-02T12:43:28;26.10;65.00
16229;DHT22;8222;51.462;12.630;2022-09-02T12:48:46;26.80;62.70
16229;DHT22;8222;51.462;12.630;2022-09-02T12:51:50;26.50;63.50
16229;DHT22;8222;51.462;12.630;2022-09-02T12:54:20;26.10;63.80
16229;DHT22;8222;51.462;12.630;2022-09-02T12:56:47;25.90;63.40
16229;DHT22;8222;51.462;12.630;2022-09-02T12:59:34;25.90;64.10
16229;DHT22;8222;51.462;12.630;2022-09-02T13:20:23;25.40;63.00
16229;DHT22;8222;51.462;12.630;2022-09-02T13:32:23;24.40;64.40
16229;DHT22;8222;51.462;12.630;2022-09-02T13:34:53;24.40;64.70
16229;DHT22;8222;51.462;12.630;2022-09-02T13:37:36;24.40;64.00
16229;DHT22;8222;51.462;12.630;2022-09-02T13:40:18;24.40;65.20
16229;DHT22;8222;51.462;12.630;2022-09-02T13:42:53;24.40;64.10
16229;DHT22;8222;51.462;12.630;2022-09-02T13:45:21;24.90;66.30
16229;DHT22;8222;51.462;12.630;2022-09-02T13:47:50;25.30;63.00
16229;DHT22;8222;51.462;12.630;2022-09-02T13:50:19;25.40;64.50
16229;DHT22;8222;51.462;12.630;2022-09-02T13:52:53;25.40;63.40
16229;DHT22;8222;51.462;12.630;2022-09-02T13:55:19;25.20;62.70
16229;DHT22;8222;51.462;12.630;2022-09-02T13:57:57;25.20;64.20
16229;DHT22;8222;51.462;12.630;2022-09-02T14:00:41;25.20;64.40
16229;DHT22;8222;51.462;12.630;2022-09-02T14:03:13;25.20;64.80
16229;DHT22;8222;51.462;12.630;2022-09-02T14:05:42;25.10;63.70
16229;DHT22;8222;51.462;12.630;2022-09-02T14:08:13;25.40;63.30
16229;DHT22;8222;51.462;12.630;2022-09-02T14:10:40;25.50;64.80
16229;DHT22;8222;51.462;12.630;2022-09-02T14:13:07;25.40;62.90
16229;DHT22;8222;51.462;12.630;2022-09-02T14:15:35;25.40;62.80
16229;DHT22;8222;51.462;12.630;2022-09-02T14:23:37;25.30;63.20
16229;DHT22;8222;51.462;12.630;2022-09-02T14:26:03;25.40;61.40
16229;DHT22;8222;51.462;12.630;2022-09-02T14:28:33;25.50;62.60
16229;DHT22;8222;51.462;12.630;2022-09-02T14:31:07;25.70;63.50
16229;DHT22;8222;51.462;12.630;2022-09-02T14:33:37;25.70;61.20
16229;DHT22;8222;51.462;12.630;2022-09-02T14:36:12;25.60;62.20
16229;DHT22;8222;51.462;12.630;2022-09-02T14:38:56;25.40;62.80
16229;DHT22;8222;51.462;12.630;2022-09-02T14:41:33;25.50;61.20
16229;DHT22;8222;51.462;12.630;2022-09-02T14:44:16;25.30;61.90
16229;DHT22;8222;51.462;12.630;2022-09-02T14:46:43;25.20;63.10
16229;DHT22;8222;51.462;12.630;2022-09-02T14:51:51;24.90;63.50
16229;DHT22;8222;51.462;12.630;2022-09-02T14:54:39;24.80;63.10
16229;DHT22;8222;51.462;12.630;2022-09-02T14:57:32;24.90;62.70
16229;DHT22;8222;51.462;12.630;2022-09-02T15:00:03;25.20;61.40
16229;DHT22;8222;51.462;12.630;2022-09-02T15:02:34;25.40;60.90
16229;DHT22;8222;51.462;12.630;2022-09-02T15:05:04;25.50;60.30
16229;DHT22;8222;51.462;12.630;2022-09-02T15:07:30;25.50;62.10
16229;DHT22;8222;51.462;12.630;2022-09-02T15:09:56;25.40;61.30
16229;DHT22;8222;51.462;12.630;2022-09-02T15:12:26;25.40;61.80
16229;DHT22;8222;51.462;12.630;2022-09-02T15:14:54;25.30;61.90
16229;DHT22;8222;51.462;12.630;2022-09-02T15:17:20;25.20;62.60
16229;DHT22;8222;51.462;12.630;2022-09-02T15:19:46;25.10;62.80
16229;DHT22;8222;51.462;12.630;2022-09-02T15:22:13;25.00;63.60
16229;DHT22;8222;51.462;12.630;2022-09-02T15:24:39;25.00;63.30
16229;DHT22;8222;51.462;12.630;2022-09-02T15:27:08;24.90;63.70
16229;DHT22;8222;51.462;12.630;2022-09-02T15:29:33;24.80;63.90
16229;DHT22;8222;51.462;12.630;2022-09-02T15:31:59;24.90;63.80
16229;DHT22;8222;51.462;12.630;2022-09-02T15:34:25;24.90;64.60
16229;DHT22;8222;51.462;12.630;2022-09-02T15:36:50;24.80;63.50
16229;DHT22;8222;51.462;12.630;2022-09-02T15:39:17;24.80;64.90
16229;DHT22;8222;51.462;12.630;2022-09-02T15:41:44;24.80;64.00
16229;DHT22;8222;51.462;12.630;2022-09-02T15:44:10;24.60;65.10
16229;DHT22;8222;51.462;12.630;2022-09-02T15:46:36;24.60;64.10
16229;DHT22;8222;51.462;12.630;2022-09-02T15:49:10;24.60;66.10
16229;DHT22;8222;51.462;12.630;2022-09-02T15:51:37;24.40;64.50
16229;DHT22;8222;51.462;12.630;2022-09-02T15:54:08;24.40;66.00
16229;DHT22;8222;51.462;12.630;2022-09-02T15:56:37;24.40;66.20
16229;DHT22;8222;51.462;12.630;2022-09-02T15:59:11;24.40;66.50
16229;DHT22;8222;51.462;12.630;2022-09-02T16:01:39;24.20;64.40
16229;DHT22;8222;51.462;12.630;2022-09-02T16:04:06;24.20;66.30
16229;DHT22;8222;51.462;12.630;2022-09-02T16:06:35;24.20;65.00
16229;DHT22;8222;51.462;12.630;2022-09-02T16:09:02;24.20;65.60
16229;DHT22;8222;51.462;12.630;2022-09-02T16:11:28;24.00;65.00
16229;DHT22;8222;51.462;12.630;2022-09-02T16:13:54;24.20;66.60
16229;DHT22;8222;51.462;12.630;2022-09-02T16:16:20;24.20;66.40
16229;DHT22;8222;51.462;12.630;2022-09-02T16:18:51;24.30;65.60
16229;DHT22;8222;51.462;12.630;2022-09-02T16:21:18;24.20;66.30
16229;DHT22;8222;51.462;12.630;2022-09-02T16:23:44;24.10;65.90
16229;DHT22;8222;51.462;12.630;2022-09-02T16:26:23;24.10;65.70
16229;DHT22;8222;51.462;12.630;2022-09-02T16:28:52;24.10;67.00
16229;DHT22;8222;51.462;12.630;2022-09-02T16:31:20;24.00;67.90
16229;DHT22;8222;51.462;12.630;2022-09-02T16:33:53;24.10;68.20
16229;DHT22;8222;51.462;12.630;2022-09-02T16:36:19;23.90;67.70
16229;DHT22;8222;51.462;12.630;2022-09-02T16:38:45;23.80;67.80
16229;DHT22;8222;51.462;12.630;2022-09-02T16:41:44;23.60;67.70
16229;DHT22;8222;51.462;12.630;2022-09-02T16:44:14;23.60;67.50
16229;DHT22;8222;51.462;12.630;2022-09-02T16:46:41;23.50;68.00
16229;DHT22;8222;51.462;12.630;2022-09-02T16:49:08;23.40;69.60
16229;DHT22;8222;51.462;12.630;2022-09-02T16:51:34;23.40;70.10
16229;DHT22;8222;51.462;12.630;2022-09-02T16:54:04;23.40;69.00
16229;DHT22;8222;51.462;12.630;2022-09-02T16:56:30;23.30;69.20
16229;DHT22;8222;51.462;12.630;2022-09-02T16:58:59;23.00;70.30
16229;DHT22;8222;51.462;12.630;2022-09-02T17:01:25;22.90;70.60
16229;DHT22;8222;51.462;12.630;2022-09-02T17:03:51;22.90;71.00
16229;DHT22;8222;51.462;12.630;2022-09-02T17:06:17;22.80;70.20
16229;DHT22;8222;51.462;12.630;2022-09-02T17:08:43;22.70;71.20
16229;DHT22;8222;51.462;12.630;2022-09-02T17:11:10;22.60;72.20
16229;DHT22;8222;51.462;12.630;2022-09-02T17:13:36;22.50;72.70
16229;DHT22;8222;51.462;12.630;2022-09-02T17:16:02;22.20;73.40
16229;DHT22;8222;51.462;12.630;2022-09-02T17:18:27;22.10;74.00
16229;DHT22;8222;51.462;12.630;2022-09-02T17:23:41;22.00;76.50
16229;DHT22;8222;51.462;12.630;2022-09-02T17:26:06;22.00;75.40
16229;DHT22;8222;51.462;12.630;2022-09-02T17:28:32;21.80;75.10
16229;DHT22;8222;51.462;12.630;2022-09-02T17:30:58;21.60;76.60
16229;DHT22;8222;51.462;12.630;2022-09-02T17:33:24;21.60;77.50
16229;DHT22;8222;51.462;12.630;2022-09-02T17:35:56;21.60;78.70
16229;DHT22;8222;51.462;12.630;2022-09-02T17:38:22;21.40;79.80
16229;DHT22;8222;51.462;12.630;2022-09-02T17:40:48;21.40;78.90
16229;DHT22;8222;51.462;12.630;2022-09-02T17:43:32;21.30;80.30
16229;DHT22;8222;51.462;12.630;2022-09-02T17:46:07;21.30;80.50
16229;DHT22;8222;51.462;12.630;2022-09-02T17:48:33;21.30;81.60
16229;DHT22;8222;51.462;12.630;2022-09-02T17:51:01;21.20;80.80
16229;DHT22;8222;51.462;12.630;2022-09-02T17:53:27;21.10;83.30
16229;DHT22;8222;51.462;12.630;2022-09-02T18:01:36;20.80;85.90
16229;DHT22;8222;51.462;12.630;2022-09-02T18:04:13;20.70;87.30
16229;DHT22;8222;51.462;12.630;2022-09-02T18:06:47;20.70;88.60
16229;DHT22;8222;51.462;12.630;2022-09-02T18:09:17;20.70;89.30
16229;DHT22;8222;51.462;12.630;2022-09-02T18:11:47;20.70;90.00
16229;DHT22;8222;51.462;12.630;2022-09-02T18:20:09;20.50;90.70
16229;DHT22;8222;51.462;12.630;2022-09-02T18:48:07;20.30;94.60
16229;DHT22;8222;51.462;12.630;2022-09-02T18:50:46;20.20;95.80